首页
METAR-TAF:

METAR-TAF

机场 :

桑給巴爾, 坦桑尼亚

纬度: 06-13S, 经度: 039-13E, 海拔: 15米

当前天气观测

该预报发布于42分钟前的17:00 UTC
风速6节,风向
温度 28°C
湿度 79%
气压 1011 hPa
能见度10公里或以上
少量云层高于2000英尺
少量云层高于2200英尺, 积雨云.
多云层高于8000英尺
雷暴

METAR: HTZA 031700Z 10006KT 9999 TS FEW020 FEW022CB BKN080 28/24 Q1011 NOSIG

时间: 20:42 (17:42 UTC)

预报

该预报发布于6小时和42分钟前的11:00 UTC
预报有效从03日的 12点(UTC)到 04日的 12点(UTC)
风速10节,风向东南
能见度10公里或以上
散云层高于2000英尺
成为
从 03日的 16点(UTC)到 03日的 18点(UTC)
风速节,风向
少量云层高于1400英尺
少量云层高于1600英尺, 积雨云.

TAF: HTZA 031100Z 0312/0412 14010KT 9999 SCT020 FEW022CBSATN40 HTDA 031100 BECMG 0316/0318 00000KT FEW014 FEW016CB

超过4000个机场的气象观测和天气预报(METAR&TAF报告)。

可查询的气象台以黄色和红色小点在地图上表示。

将鼠标移到小点上方,可查看气象台名称。

然后点击查看天气观测和预报。

如需切换地图:点击带黑十字的绿色按钮放大地图;点击带横线的绿色按钮缩小地图;或者点击绿色箭头查看邻近地区的地图。


METAR-TAF: